createdAt,value
2022-09-04T00:02:21.702Z,15.74
2022-09-04T00:05:03.738Z,15.72
2022-09-04T00:07:37.353Z,15.56
2022-09-04T00:10:29.872Z,15.66
2022-09-04T00:13:12.320Z,15.65
2022-09-04T00:15:43.676Z,15.59
2022-09-04T00:18:23.129Z,15.59
2022-09-04T00:21:27.518Z,15.59
2022-09-04T00:23:59.664Z,15.43
2022-09-04T00:26:44.379Z,15.52
2022-09-04T00:29:40.607Z,15.32
2022-09-04T00:32:25.977Z,15.45
2022-09-04T00:34:58.556Z,15.42
2022-09-04T00:37:32.744Z,15.34
2022-09-04T00:40:06.025Z,15.33
2022-09-04T00:43:19.056Z,15.36
2022-09-04T00:46:19.091Z,15.31
2022-09-04T00:49:03.743Z,15.27
2022-09-04T00:51:45.114Z,15.25
2022-09-04T00:54:56.955Z,15.16
2022-09-04T00:57:39.089Z,15.14
2022-09-04T01:00:17.858Z,15.16
2022-09-04T01:03:21.859Z,15.17
2022-09-04T01:06:25.080Z,15.15
2022-09-04T01:09:01.222Z,14.98
2022-09-04T01:11:49.629Z,15.13
2022-09-04T01:14:26.170Z,15.01
2022-09-04T01:17:04.889Z,14.95
2022-09-04T01:19:58.072Z,15.07
2022-09-04T01:22:44.260Z,15.09
2022-09-04T01:25:37.843Z,15.09
2022-09-04T01:28:14.692Z,14.99
2022-09-04T01:31:06.190Z,15.06
2022-09-04T01:33:51.165Z,14.85
2022-09-04T01:36:30.849Z,14.97
2022-09-04T01:38:59.966Z,15.10
2022-09-04T01:41:36.335Z,15.08
2022-09-04T01:44:07.134Z,15.09
2022-09-04T01:47:03.481Z,15.11
2022-09-04T01:49:37.682Z,15.07
2022-09-04T01:52:22.976Z,15.09
2022-09-04T01:54:58.759Z,15.08
2022-09-04T01:57:30.892Z,15.09
2022-09-04T02:00:19.946Z,15.09
2022-09-04T02:03:00.270Z,15.09
2022-09-04T02:05:30.250Z,15.16
2022-09-04T02:08:33.939Z,15.09
2022-09-04T02:11:12.624Z,14.97
2022-09-04T02:13:53.689Z,15.03
2022-09-04T02:16:43.929Z,15.02
2022-09-04T02:19:37.697Z,15.00
2022-09-04T02:22:15.197Z,14.97
2022-09-04T02:25:06.215Z,14.97
2022-09-04T02:27:53.996Z,14.94
2022-09-04T02:30:21.179Z,14.92
2022-09-04T02:33:01.068Z,14.92
2022-09-04T02:35:37.539Z,14.89
2022-09-04T02:38:15.025Z,14.84
2022-09-04T02:41:03.998Z,14.89
2022-09-04T02:44:16.945Z,14.81
2022-09-04T02:47:13.621Z,14.84
2022-09-04T02:50:06.340Z,14.85
2022-09-04T02:52:59.582Z,14.73
2022-09-04T02:56:00.107Z,14.83
2022-09-04T02:58:47.647Z,14.88
2022-09-04T03:01:28.912Z,14.66
2022-09-04T03:04:18.148Z,14.63
2022-09-04T03:07:07.017Z,14.70
2022-09-04T03:09:48.230Z,14.66
2022-09-04T03:12:37.746Z,14.57
2022-09-04T03:15:27.681Z,14.60
2022-09-04T03:18:21.120Z,14.56
2022-09-04T03:20:56.350Z,14.45
2022-09-04T03:23:27.162Z,14.45
2022-09-04T03:25:57.093Z,14.43
2022-09-04T03:28:43.737Z,14.38
2022-09-04T03:31:40.588Z,14.37
2022-09-04T03:34:56.561Z,14.36
2022-09-04T03:37:30.843Z,14.26
2022-09-04T03:40:32.309Z,14.27
2022-09-04T03:43:07.891Z,14.21
2022-09-04T03:45:53.464Z,14.18
2022-09-04T03:48:34.508Z,14.15
2022-09-04T03:51:18.876Z,14.10
2022-09-04T03:53:53.576Z,14.07
2022-09-04T03:56:52.255Z,14.06
2022-09-04T03:59:49.804Z,14.03
2022-09-04T04:02:34.519Z,13.81
2022-09-04T04:05:09.700Z,13.89
2022-09-04T04:08:09.825Z,13.85
2022-09-04T04:10:52.711Z,13.79
2022-09-04T04:13:28.591Z,13.73
2022-09-04T04:16:10.963Z,13.50
2022-09-04T04:19:06.926Z,13.67
2022-09-04T04:22:10.393Z,13.63
2022-09-04T04:24:39.465Z,13.56
2022-09-04T04:27:25.558Z,13.55
2022-09-04T04:30:14.104Z,13.49
2022-09-04T04:32:59.170Z,13.49
2022-09-04T04:35:28.590Z,13.45
2022-09-04T04:38:12.718Z,13.34
2022-09-04T04:41:16.941Z,13.44
2022-09-04T04:44:11.186Z,13.42
2022-09-04T04:46:54.587Z,13.40
2022-09-04T04:49:39.435Z,13.37
2022-09-04T04:52:38.971Z,13.38
2022-09-04T04:55:24.638Z,13.34
2022-09-04T04:58:07.762Z,13.33
2022-09-04T05:00:40.698Z,13.33
2022-09-04T05:03:46.115Z,13.34
2022-09-04T05:06:15.232Z,13.32
2022-09-04T05:09:09.313Z,13.33
2022-09-04T05:11:53.738Z,13.34
2022-09-04T05:14:33.691Z,13.33
2022-09-04T05:17:14.847Z,13.34
2022-09-04T05:19:52.408Z,13.36
2022-09-04T05:22:38.763Z,13.44
2022-09-04T05:25:21.680Z,13.37
2022-09-04T05:28:10.089Z,13.40
2022-09-04T05:31:13.992Z,13.58
2022-09-04T05:33:59.306Z,13.55
2022-09-04T05:36:36.783Z,13.68
2022-09-04T05:39:21.858Z,13.76
2022-09-04T05:42:15.576Z,13.79
2022-09-04T05:45:19.694Z,13.90
2022-09-04T05:48:08.117Z,13.99
2022-09-04T05:50:53.976Z,14.10
2022-09-04T05:53:32.628Z,14.24
2022-09-04T05:56:11.191Z,14.33
2022-09-04T05:59:01.341Z,14.48
2022-09-04T06:01:39.179Z,14.59
2022-09-04T06:04:24.910Z,14.73
2022-09-04T06:06:58.875Z,14.87
2022-09-04T06:09:43.578Z,14.99
2022-09-04T06:12:50.757Z,15.07
2022-09-04T06:15:26.442Z,15.32
2022-09-04T06:18:14.746Z,15.36
2022-09-04T06:20:59.256Z,15.60
2022-09-04T06:23:49.938Z,15.73
2022-09-04T06:26:40.363Z,15.90
2022-09-04T06:29:25.214Z,16.05
2022-09-04T06:32:04.384Z,16.18
2022-09-04T06:34:55.983Z,16.32
2022-09-04T06:37:31.537Z,16.49
2022-09-04T06:40:19.253Z,16.66
2022-09-04T06:43:05.652Z,16.82
2022-09-04T06:45:44.215Z,17.04
2022-09-04T06:48:38.299Z,17.17
2022-09-04T06:51:17.017Z,17.50
2022-09-04T06:53:50.431Z,17.73
2022-09-04T06:56:17.313Z,17.89
2022-09-04T06:59:00.586Z,18.11
2022-09-04T07:01:40.497Z,18.26
2022-09-04T07:04:25.632Z,18.37
2022-09-04T07:07:10.126Z,18.48
2022-09-04T07:09:45.464Z,18.59
2022-09-04T07:12:29.547Z,18.64
2022-09-04T07:15:21.251Z,18.76
2022-09-04T07:18:23.217Z,18.90
2022-09-04T07:21:06.287Z,18.91
2022-09-04T07:23:47.798Z,19.11
2022-09-04T07:26:20.023Z,19.15
2022-09-04T07:29:11.454Z,19.24
2022-09-04T07:31:59.499Z,19.30
2022-09-04T07:34:37.940Z,19.40
2022-09-04T07:37:10.394Z,19.47
2022-09-04T07:39:49.102Z,19.56
2022-09-04T07:42:43.798Z,19.61
2022-09-04T07:45:20.073Z,19.73
2022-09-04T07:48:08.066Z,19.84
2022-09-04T07:50:40.092Z,19.93
2022-09-04T07:53:24.994Z,20.02
2022-09-04T07:56:06.608Z,20.12
2022-09-04T07:58:44.996Z,20.22
2022-09-04T08:01:52.716Z,20.35
2022-09-04T08:04:44.053Z,20.44
2022-09-04T08:07:39.855Z,20.59
2022-09-04T08:10:31.572Z,20.68
2022-09-04T08:13:14.123Z,20.77
2022-09-04T08:15:43.812Z,20.84
2022-09-04T08:19:01.566Z,21.03
2022-09-04T08:21:33.629Z,21.04
2022-09-04T08:24:06.454Z,21.16
2022-09-04T08:27:10.484Z,21.26
2022-09-04T08:29:58.713Z,21.32
2022-09-04T08:32:53.316Z,21.40
2022-09-04T08:35:41.151Z,21.46
2022-09-04T08:38:16.423Z,21.58
2022-09-04T08:41:06.892Z,21.68
2022-09-04T08:43:55.462Z,21.80
2022-09-04T08:46:28.746Z,21.85
2022-09-04T08:49:10.492Z,22.00
2022-09-04T08:51:58.622Z,22.09
2022-09-04T08:54:31.244Z,22.18
2022-09-04T08:57:36.006Z,22.33
2022-09-04T09:00:11.503Z,22.44
2022-09-04T09:03:15.533Z,22.57
2022-09-04T09:06:19.568Z,22.72
2022-09-04T09:09:19.207Z,22.90
2022-09-04T09:12:16.945Z,23.11
2022-09-04T09:15:11.111Z,23.32
2022-09-04T09:17:57.854Z,23.64
2022-09-04T09:21:02.264Z,24.08
2022-09-04T09:23:32.091Z,24.45
2022-09-04T09:26:21.182Z,24.86
2022-09-04T09:28:50.895Z,25.27
2022-09-04T09:31:35.566Z,25.62
2022-09-04T09:34:41.863Z,25.09
2022-09-04T09:37:29.815Z,26.29
2022-09-04T09:40:21.264Z,26.63
2022-09-04T09:43:13.040Z,27.01
2022-09-04T09:46:04.741Z,27.25
2022-09-04T09:48:50.514Z,27.57
2022-09-04T09:51:51.689Z,27.77
2022-09-04T09:54:30.539Z,27.53
2022-09-04T09:57:06.691Z,28.27
2022-09-04T10:00:13.048Z,28.29
2022-09-04T10:02:42.910Z,28.59
2022-09-04T10:05:40.159Z,28.89
2022-09-04T10:08:40.549Z,29.02
2022-09-04T10:11:29.163Z,29.01
2022-09-04T10:14:29.857Z,29.23
2022-09-04T10:17:15.046Z,29.18
2022-09-04T10:20:10.537Z,29.16
2022-09-04T10:22:46.295Z,29.31
2022-09-04T10:25:31.187Z,29.38
2022-09-04T10:28:19.323Z,29.44
2022-09-04T10:31:07.894Z,29.49
2022-09-04T10:33:49.817Z,29.57
2022-09-04T10:36:35.965Z,29.62
2022-09-04T10:39:55.633Z,29.84
2022-09-04T10:42:38.325Z,29.24
2022-09-04T10:45:27.567Z,28.94
2022-09-04T10:48:08.580Z,29.45
2022-09-04T10:50:49.062Z,30.42
2022-09-04T10:53:51.715Z,30.19
2022-09-04T10:56:27.245Z,30.44
2022-09-04T10:59:13.689Z,30.37
2022-09-04T11:02:15.798Z,30.53
2022-09-04T11:05:20.575Z,30.45
2022-09-04T11:08:25.597Z,30.62
2022-09-04T11:11:25.442Z,30.64
2022-09-04T11:14:13.153Z,30.61
2022-09-04T11:16:58.189Z,30.64
2022-09-04T11:19:32.435Z,30.67
2022-09-04T11:22:02.374Z,30.77
2022-09-04T11:24:54.705Z,30.96
2022-09-04T11:27:45.805Z,31.01
2022-09-04T11:30:31.849Z,30.76
2022-09-04T11:33:22.987Z,31.15
2022-09-04T11:36:03.638Z,31.01
2022-09-04T11:39:08.015Z,31.17
2022-09-04T11:42:13.992Z,31.25
2022-09-04T11:44:49.954Z,31.30
2022-09-04T11:47:55.745Z,31.21
2022-09-04T11:50:43.060Z,31.44
2022-09-04T11:53:20.002Z,31.36
2022-09-04T11:56:21.994Z,31.07
2022-09-04T11:58:52.283Z,31.39
2022-09-04T12:01:34.456Z,31.43
2022-09-04T12:04:32.316Z,31.46
2022-09-04T12:07:18.090Z,31.69
2022-09-04T12:10:09.340Z,31.80
2022-09-04T12:13:15.243Z,31.66
2022-09-04T12:15:58.568Z,32.09
2022-09-04T12:18:55.160Z,32.18
2022-09-04T12:21:53.887Z,31.73
2022-09-04T12:24:56.935Z,32.17
2022-09-04T12:27:45.026Z,32.12
2022-09-04T12:30:27.688Z,31.64
2022-09-04T12:33:08.538Z,32.08
2022-09-04T12:35:43.627Z,32.14
2022-09-04T12:38:39.464Z,32.14
2022-09-04T12:41:18.537Z,31.79
2022-09-04T12:44:17.887Z,30.72
2022-09-04T12:47:03.131Z,32.14
2022-09-04T12:50:00.127Z,32.39
2022-09-04T12:52:58.561Z,32.25
2022-09-04T12:56:10.009Z,32.45
2022-09-04T12:59:01.257Z,32.01
2022-09-04T13:01:55.635Z,32.00
2022-09-04T13:04:27.627Z,31.89
2022-09-04T13:07:15.643Z,31.81
2022-09-04T13:10:07.177Z,31.75
2022-09-04T13:13:10.538Z,30.50
2022-09-04T13:16:01.670Z,31.66
2022-09-04T13:18:48.036Z,31.62
2022-09-04T13:21:38.802Z,30.93
2022-09-04T13:24:14.517Z,31.60
2022-09-04T13:27:08.279Z,31.76
2022-09-04T13:30:22.165Z,31.15
2022-09-04T13:33:14.339Z,31.97
2022-09-04T13:35:58.558Z,32.18
2022-09-04T13:38:58.068Z,30.93
2022-09-04T13:41:25.076Z,32.72
2022-09-04T13:44:40.920Z,32.57
2022-09-04T13:47:32.414Z,31.78
2022-09-04T13:50:14.984Z,31.97
2022-09-04T13:52:50.721Z,31.56
2022-09-04T13:55:30.484Z,32.04
2022-09-04T13:58:11.053Z,32.30
2022-09-04T14:00:46.256Z,31.92
2022-09-04T14:03:38.931Z,31.22
2022-09-04T14:06:10.331Z,31.61
2022-09-04T14:08:40.062Z,31.51
2022-09-04T14:11:56.882Z,31.30
2022-09-04T14:14:41.749Z,32.22
2022-09-04T14:17:09.721Z,31.16
2022-09-04T14:20:03.316Z,31.95
2022-09-04T14:23:14.109Z,31.92
2022-09-04T14:25:56.682Z,31.08
2022-09-04T14:28:38.004Z,30.65
2022-09-04T14:31:14.407Z,31.81
2022-09-04T14:33:45.024Z,31.77
2022-09-04T14:36:40.967Z,30.66
2022-09-04T14:39:20.630Z,31.85
2022-09-04T14:42:29.709Z,31.86
2022-09-04T14:45:13.762Z,31.51
2022-09-04T14:47:55.112Z,31.15
2022-09-04T14:50:30.810Z,30.63
2022-09-04T14:53:04.853Z,30.91
2022-09-04T14:55:34.866Z,31.14
2022-09-04T14:58:27.933Z,31.30
2022-09-04T15:01:09.585Z,30.45
2022-09-04T15:04:04.449Z,31.25
2022-09-04T15:07:09.752Z,31.25
2022-09-04T15:09:38.032Z,31.23
2022-09-04T15:12:25.237Z,31.40
2022-09-04T15:15:11.285Z,31.53
2022-09-04T15:17:46.867Z,31.04
2022-09-04T15:20:30.782Z,31.52
2022-09-04T15:23:05.036Z,31.65
2022-09-04T15:25:59.818Z,31.04
2022-09-04T15:28:55.405Z,31.32
2022-09-04T15:31:32.048Z,31.67
2022-09-04T15:34:09.834Z,30.43
2022-09-04T15:36:39.334Z,30.76
2022-09-04T15:39:18.166Z,31.86
2022-09-04T15:41:50.605Z,30.82
2022-09-04T15:44:35.651Z,31.37
2022-09-04T15:47:16.421Z,31.17
2022-09-04T15:49:50.937Z,30.55
2022-09-04T15:52:30.033Z,30.55
2022-09-04T15:55:31.502Z,31.03
2022-09-04T15:58:15.848Z,29.67
2022-09-04T16:01:10.193Z,31.04
2022-09-04T16:03:47.485Z,29.65
2022-09-04T16:06:21.018Z,30.28
2022-09-04T16:09:33.616Z,30.25
2022-09-04T16:12:44.045Z,29.69
2022-09-04T16:20:49.246Z,30.22
2022-09-04T16:24:06.515Z,30.08
2022-09-04T16:27:12.003Z,29.96
2022-09-04T16:33:34.029Z,29.97
2022-09-04T16:36:14.002Z,29.36
2022-09-04T16:38:57.522Z,30.56
2022-09-04T16:41:37.742Z,30.05
2022-09-04T16:44:32.770Z,30.52
2022-09-04T16:47:16.396Z,30.34
2022-09-04T16:50:19.829Z,30.27
2022-09-04T16:53:12.523Z,28.70
2022-09-04T16:56:07.506Z,29.51
2022-09-04T16:58:55.028Z,29.67
2022-09-04T17:01:39.470Z,28.60
2022-09-04T17:04:52.486Z,29.22
2022-09-04T17:07:36.107Z,28.84
2022-09-04T17:10:09.270Z,28.50
2022-09-04T17:13:03.142Z,28.13
2022-09-04T17:15:53.939Z,27.10
2022-09-04T17:18:24.706Z,26.46
2022-09-04T17:24:58.095Z,27.25
2022-09-04T17:29:01.631Z,26.91
2022-09-04T17:29:11.751Z,26.17
2022-09-04T17:30:32.593Z,26.36
2022-09-04T17:38:24.378Z,25.21
2022-09-04T17:40:36.454Z,25.93
2022-09-04T17:40:53.289Z,25.36
2022-09-04T17:43:21.413Z,24.86
2022-09-04T17:45:55.404Z,25.34
2022-09-04T17:48:30.243Z,25.10
2022-09-04T17:51:04.889Z,24.52
2022-09-04T17:53:36.232Z,24.51
2022-09-04T17:56:13.946Z,23.61
2022-09-04T17:58:43.881Z,24.48
2022-09-04T18:01:23.828Z,23.96
2022-09-04T18:04:22.652Z,24.17
2022-09-04T18:07:33.558Z,23.55
2022-09-04T18:10:19.438Z,23.85
2022-09-04T18:12:54.976Z,23.64
2022-09-04T18:15:33.634Z,22.84
2022-09-04T18:18:25.110Z,22.94
2022-09-04T18:21:14.017Z,22.91
2022-09-04T18:23:51.323Z,22.00
2022-09-04T18:26:22.790Z,21.93
2022-09-04T18:29:55.063Z,22.64
2022-09-04T18:37:10.757Z,22.79
2022-09-04T18:37:19.447Z,22.55
2022-09-04T18:38:44.547Z,22.46
2022-09-04T18:49:35.873Z,22.36
2022-09-04T18:50:24.612Z,21.69
2022-09-04T18:50:32.529Z,21.24
2022-09-04T18:50:51.001Z,22.33
2022-09-04T18:53:20.324Z,22.19
2022-09-04T18:56:20.813Z,21.99
2022-09-04T18:58:57.514Z,22.01
2022-09-04T19:01:38.790Z,20.97
2022-09-04T19:04:29.562Z,21.87
2022-09-04T19:07:07.209Z,21.80
2022-09-04T19:09:59.123Z,21.74
2022-09-04T19:12:47.204Z,21.71
2022-09-04T19:15:37.541Z,21.55
2022-09-04T19:18:26.875Z,21.65
2022-09-04T19:21:14.769Z,21.63
2022-09-04T19:23:44.774Z,21.53
2022-09-04T19:26:35.690Z,21.51
2022-09-04T19:29:20.388Z,21.45
2022-09-04T19:32:13.819Z,21.39
2022-09-04T19:34:48.808Z,21.37
2022-09-04T19:42:07.476Z,21.33
2022-09-04T19:45:54.488Z,21.02
2022-09-04T19:46:08.898Z,21.19
2022-09-04T19:46:28.073Z,21.11
2022-09-04T19:53:17.506Z,21.05
2022-09-04T19:53:30.876Z,20.97
2022-09-04T19:55:24.866Z,20.77
2022-09-04T19:58:08.624Z,20.79
2022-09-04T20:00:48.094Z,20.80
2022-09-04T20:03:28.992Z,20.60
2022-09-04T20:06:07.752Z,20.60
2022-09-04T20:08:52.640Z,20.58
2022-09-04T20:11:34.601Z,20.54
2022-09-04T20:14:14.306Z,20.51
2022-09-04T20:17:09.006Z,20.47
2022-09-04T20:19:41.521Z,20.20
2022-09-04T20:22:46.204Z,20.36
2022-09-04T20:25:18.380Z,20.27
2022-09-04T20:27:54.125Z,20.21
2022-09-04T20:30:24.552Z,19.81
2022-09-04T20:33:02.864Z,20.11
2022-09-04T20:35:38.082Z,20.08
2022-09-04T20:38:22.969Z,20.05
2022-09-04T20:40:58.135Z,19.98
2022-09-04T20:43:47.565Z,19.95
2022-09-04T20:52:40.475Z,19.88
2022-09-04T20:52:59.377Z,19.89
2022-09-04T20:53:07.971Z,19.81
2022-09-04T20:55:37.514Z,19.88
2022-09-04T21:03:09.791Z,19.77
2022-09-04T21:03:12.774Z,19.84
2022-09-04T21:04:42.246Z,19.82
2022-09-04T21:07:47.169Z,19.79
2022-09-04T21:10:29.378Z,19.71
2022-09-04T21:13:14.510Z,19.48
2022-09-04T21:15:47.079Z,19.66
2022-09-04T21:18:34.373Z,19.64
2022-09-04T21:21:01.050Z,19.58
2022-09-04T21:24:03.272Z,19.59
2022-09-04T21:26:52.121Z,19.55
2022-09-04T21:29:37.323Z,19.52
2022-09-04T21:32:48.666Z,19.53
2022-09-04T21:35:29.244Z,19.48
2022-09-04T21:38:08.828Z,19.48
2022-09-04T21:40:51.268Z,19.49
2022-09-04T21:43:42.569Z,19.46
2022-09-04T21:46:28.957Z,19.46
2022-09-04T21:49:08.168Z,19.47
2022-09-04T21:52:09.110Z,19.48
2022-09-04T21:57:57.707Z,19.48
2022-09-04T22:02:38.665Z,19.37
2022-09-04T22:02:42.823Z,19.45
2022-09-04T22:04:10.911Z,19.38
2022-09-04T22:09:09.875Z,19.37
2022-09-04T22:13:30.993Z,19.39
2022-09-04T22:13:41.161Z,19.37
2022-09-04T22:16:42.073Z,19.34
2022-09-04T22:19:16.635Z,19.31
2022-09-04T22:21:43.435Z,19.30
2022-09-04T22:24:36.313Z,19.30
2022-09-04T22:27:22.746Z,19.33
2022-09-04T22:29:53.000Z,19.23
2022-09-04T22:32:38.189Z,19.44
2022-09-04T22:35:41.775Z,19.37
2022-09-04T22:38:33.243Z,19.36
2022-09-04T22:41:11.555Z,19.32
2022-09-04T22:43:45.368Z,19.26
2022-09-04T22:46:30.810Z,19.36
2022-09-04T22:49:11.989Z,19.39
2022-09-04T22:52:10.173Z,19.45
2022-09-04T22:54:59.610Z,19.47
2022-09-04T22:57:45.117Z,19.56
2022-09-04T23:00:18.841Z,19.63
2022-09-04T23:03:21.945Z,19.61
2022-09-04T23:12:20.746Z,19.81
2022-09-04T23:13:50.738Z,19.91
2022-09-04T23:13:57.623Z,19.99
2022-09-04T23:15:48.525Z,20.07
2022-09-04T23:23:18.729Z,20.13
2022-09-04T23:26:34.340Z,20.23
2022-09-04T23:26:43.383Z,20.28
2022-09-04T23:27:36.601Z,20.27
2022-09-04T23:30:26.568Z,20.31
2022-09-04T23:33:03.783Z,20.11
2022-09-04T23:36:29.675Z,20.31
2022-09-04T23:39:08.795Z,20.24
2022-09-04T23:41:53.346Z,20.19
2022-09-04T23:44:47.860Z,20.07
2022-09-04T23:47:50.411Z,20.11
2022-09-04T23:50:28.423Z,20.03
2022-09-04T23:53:03.672Z,19.93
2022-09-04T23:56:05.542Z,19.91
2022-09-04T23:59:20.893Z,19.77
